sensor_id;sensor_type;location;lat;lon;timestamp;temperature;humidity
16532;DHT22;66872;63.142;14.482;2023-06-14T00:00:20;21.40;1.00
16532;DHT22;66872;63.142;14.482;2023-06-14T00:02:46;21.30;1.00
16532;DHT22;66872;63.142;14.482;2023-06-14T00:05:11;21.30;1.00
16532;DHT22;66872;63.142;14.482;2023-06-14T00:07:41;21.30;1.00
16532;DHT22;66872;63.142;14.482;2023-06-14T00:10:14;21.30;1.00
16532;DHT22;66872;63.142;14.482;2023-06-14T00:12:40;21.30;1.00
16532;DHT22;66872;63.142;14.482;2023-06-14T00:15:07;21.20;1.00
16532;DHT22;66872;63.142;14.482;2023-06-14T00:17:35;21.20;1.00
16532;DHT22;66872;63.142;14.482;2023-06-14T00:20:03;21.20;1.00
16532;DHT22;66872;63.142;14.482;2023-06-14T00:22:31;21.20;1.00
16532;DHT22;66872;63.142;14.482;2023-06-14T00:24:57;21.20;1.00
16532;DHT22;66872;63.142;14.482;2023-06-14T00:27:23;21.10;1.00
16532;DHT22;66872;63.142;14.482;2023-06-14T00:29:49;21.10;1.00
16532;DHT22;66872;63.142;14.482;2023-06-14T00:32:14;21.10;1.00
16532;DHT22;66872;63.142;14.482;2023-06-14T00:34:40;21.10;1.00
16532;DHT22;66872;63.142;14.482;2023-06-14T00:37:06;21.10;1.00
16532;DHT22;66872;63.142;14.482;2023-06-14T00:39:31;21.10;1.00
16532;DHT22;66872;63.142;14.482;2023-06-14T00:41:57;21.10;1.00
16532;DHT22;66872;63.142;14.482;2023-06-14T00:44:24;21.00;1.00
16532;DHT22;66872;63.142;14.482;2023-06-14T00:46:50;21.00;1.00
16532;DHT22;66872;63.142;14.482;2023-06-14T00:49:17;21.00;1.00
16532;DHT22;66872;63.142;14.482;2023-06-14T00:51:45;21.00;1.00
16532;DHT22;66872;63.142;14.482;2023-06-14T00:54:11;21.00;1.00
16532;DHT22;66872;63.142;14.482;2023-06-14T00:56:37;21.00;1.00
16532;DHT22;66872;63.142;14.482;2023-06-14T00:59:03;21.00;1.00
16532;DHT22;66872;63.142;14.482;2023-06-14T01:01:30;20.90;1.00
16532;DHT22;66872;63.142;14.482;2023-06-14T01:03:58;20.90;1.00
16532;DHT22;66872;63.142;14.482;2023-06-14T01:06:45;20.90;1.00
16532;DHT22;66872;63.142;14.482;2023-06-14T01:10:19;20.90;1.00
16532;DHT22;66872;63.142;14.482;2023-06-14T01:15:02;20.90;1.00
16532;DHT22;66872;63.142;14.482;2023-06-14T01:17:29;20.90;1.00
16532;DHT22;66872;63.142;14.482;2023-06-14T01:20:06;20.80;1.00
16532;DHT22;66872;63.142;14.482;2023-06-14T01:22:35;20.80;1.00
16532;DHT22;66872;63.142;14.482;2023-06-14T01:25:01;20.80;1.00
16532;DHT22;66872;63.142;14.482;2023-06-14T01:27:27;20.80;1.00
16532;DHT22;66872;63.142;14.482;2023-06-14T01:29:58;20.80;1.00
16532;DHT22;66872;63.142;14.482;2023-06-14T01:32:26;20.80;1.00
16532;DHT22;66872;63.142;14.482;2023-06-14T01:34:52;20.80;1.00
16532;DHT22;66872;63.142;14.482;2023-06-14T01:37:19;20.80;1.00
16532;DHT22;66872;63.142;14.482;2023-06-14T01:39:45;20.80;1.00
16532;DHT22;66872;63.142;14.482;2023-06-14T01:42:13;20.80;1.00
16532;DHT22;66872;63.142;14.482;2023-06-14T01:44:40;20.80;1.00
16532;DHT22;66872;63.142;14.482;2023-06-14T01:47:06;20.80;1.00
16532;DHT22;66872;63.142;14.482;2023-06-14T01:49:35;20.70;1.00
16532;DHT22;66872;63.142;14.482;2023-06-14T01:52:01;20.70;1.00
16532;DHT22;66872;63.142;14.482;2023-06-14T01:54:27;20.70;1.00
16532;DHT22;66872;63.142;14.482;2023-06-14T01:56:52;20.70;1.00
16532;DHT22;66872;63.142;14.482;2023-06-14T01:59:18;20.70;1.00
16532;DHT22;66872;63.142;14.482;2023-06-14T02:01:44;20.70;1.00
16532;DHT22;66872;63.142;14.482;2023-06-14T02:04:11;20.70;1.00
16532;DHT22;66872;63.142;14.482;2023-06-14T02:06:37;20.70;1.00
16532;DHT22;66872;63.142;14.482;2023-06-14T02:09:03;20.70;1.00
16532;DHT22;66872;63.142;14.482;2023-06-14T02:11:29;20.70;1.00
16532;DHT22;66872;63.142;14.482;2023-06-14T02:13:55;20.70;1.00
16532;DHT22;66872;63.142;14.482;2023-06-14T02:16:21;20.70;1.00
16532;DHT22;66872;63.142;14.482;2023-06-14T02:18:47;20.70;1.00
16532;DHT22;66872;63.142;14.482;2023-06-14T02:21:14;20.70;1.00
16532;DHT22;66872;63.142;14.482;2023-06-14T02:23:39;20.70;1.00
16532;DHT22;66872;63.142;14.482;2023-06-14T02:26:05;20.70;1.00
16532;DHT22;66872;63.142;14.482;2023-06-14T02:28:31;20.70;1.00
16532;DHT22;66872;63.142;14.482;2023-06-14T02:30:57;20.70;1.00
16532;DHT22;66872;63.142;14.482;2023-06-14T02:33:22;20.70;1.00
16532;DHT22;66872;63.142;14.482;2023-06-14T02:35:48;20.80;1.00
16532;DHT22;66872;63.142;14.482;2023-06-14T02:38:14;20.80;1.00
16532;DHT22;66872;63.142;14.482;2023-06-14T02:40:39;20.80;1.00
16532;DHT22;66872;63.142;14.482;2023-06-14T02:43:08;20.80;1.00
16532;DHT22;66872;63.142;14.482;2023-06-14T02:45:33;20.80;1.00
16532;DHT22;66872;63.142;14.482;2023-06-14T02:47:59;20.80;1.00
16532;DHT22;66872;63.142;14.482;2023-06-14T02:50:25;20.80;1.00
16532;DHT22;66872;63.142;14.482;2023-06-14T02:52:53;20.80;1.00
16532;DHT22;66872;63.142;14.482;2023-06-14T02:55:21;20.80;1.00
16532;DHT22;66872;63.142;14.482;2023-06-14T02:57:46;20.90;1.00
16532;DHT22;66872;63.142;14.482;2023-06-14T03:00:13;20.80;1.00
16532;DHT22;66872;63.142;14.482;2023-06-14T03:02:39;20.90;1.00
16532;DHT22;66872;63.142;14.482;2023-06-14T03:05:05;20.90;1.00
16532;DHT22;66872;63.142;14.482;2023-06-14T03:07:32;20.90;1.00
16532;DHT22;66872;63.142;14.482;2023-06-14T03:09:58;20.90;1.00
16532;DHT22;66872;63.142;14.482;2023-06-14T03:12:24;21.00;1.00
16532;DHT22;66872;63.142;14.482;2023-06-14T03:14:50;21.00;1.00
16532;DHT22;66872;63.142;14.482;2023-06-14T03:17:17;21.10;1.00
16532;DHT22;66872;63.142;14.482;2023-06-14T03:19:43;21.10;1.00
16532;DHT22;66872;63.142;14.482;2023-06-14T03:22:09;21.20;1.00
16532;DHT22;66872;63.142;14.482;2023-06-14T03:24:37;21.20;1.00
16532;DHT22;66872;63.142;14.482;2023-06-14T03:27:03;21.20;1.00
16532;DHT22;66872;63.142;14.482;2023-06-14T03:29:29;21.30;1.00
16532;DHT22;66872;63.142;14.482;2023-06-14T03:32:02;21.30;1.00
16532;DHT22;66872;63.142;14.482;2023-06-14T03:34:28;21.40;1.00
16532;DHT22;66872;63.142;14.482;2023-06-14T03:36:54;21.40;1.00
16532;DHT22;66872;63.142;14.482;2023-06-14T03:39:20;21.50;1.00
16532;DHT22;66872;63.142;14.482;2023-06-14T03:41:46;21.60;1.00
16532;DHT22;66872;63.142;14.482;2023-06-14T03:44:13;21.70;1.00
16532;DHT22;66872;63.142;14.482;2023-06-14T03:46:39;21.80;1.00
16532;DHT22;66872;63.142;14.482;2023-06-14T03:49:04;21.90;1.00
16532;DHT22;66872;63.142;14.482;2023-06-14T03:51:30;22.00;1.00
16532;DHT22;66872;63.142;14.482;2023-06-14T03:53:56;22.00;1.00
16532;DHT22;66872;63.142;14.482;2023-06-14T03:56:22;22.10;1.00
16532;DHT22;66872;63.142;14.482;2023-06-14T03:58:47;22.20;1.00
16532;DHT22;66872;63.142;14.482;2023-06-14T04:01:13;22.30;1.00
16532;DHT22;66872;63.142;14.482;2023-06-14T04:03:39;22.40;1.00
16532;DHT22;66872;63.142;14.482;2023-06-14T04:06:06;22.40;1.00
16532;DHT22;66872;63.142;14.482;2023-06-14T04:08:31;22.50;1.00
16532;DHT22;66872;63.142;14.482;2023-06-14T04:10:58;22.50;1.00
16532;DHT22;66872;63.142;14.482;2023-06-14T04:13:23;22.60;1.00
16532;DHT22;66872;63.142;14.482;2023-06-14T04:15:49;22.60;1.00
16532;DHT22;66872;63.142;14.482;2023-06-14T04:18:15;22.60;1.00
16532;DHT22;66872;63.142;14.482;2023-06-14T04:20:41;22.60;1.00
16532;DHT22;66872;63.142;14.482;2023-06-14T04:23:17;22.60;1.00
16532;DHT22;66872;63.142;14.482;2023-06-14T04:25:46;22.70;1.00
16532;DHT22;66872;63.142;14.482;2023-06-14T04:28:13;22.80;1.00
16532;DHT22;66872;63.142;14.482;2023-06-14T04:30:42;22.90;1.00
16532;DHT22;66872;63.142;14.482;2023-06-14T04:33:08;23.00;1.00
16532;DHT22;66872;63.142;14.482;2023-06-14T04:35:36;23.10;1.00
16532;DHT22;66872;63.142;14.482;2023-06-14T04:38:03;23.20;1.00
16532;DHT22;66872;63.142;14.482;2023-06-14T04:40:39;23.30;1.00
16532;DHT22;66872;63.142;14.482;2023-06-14T04:43:11;23.40;1.00
16532;DHT22;66872;63.142;14.482;2023-06-14T04:45:37;23.50;1.00
16532;DHT22;66872;63.142;14.482;2023-06-14T04:48:05;23.50;1.00
16532;DHT22;66872;63.142;14.482;2023-06-14T04:50:32;23.60;1.00
16532;DHT22;66872;63.142;14.482;2023-06-14T04:52:58;23.70;1.00
16532;DHT22;66872;63.142;14.482;2023-06-14T04:55:25;23.80;1.00
16532;DHT22;66872;63.142;14.482;2023-06-14T04:57:51;23.80;1.00
16532;DHT22;66872;63.142;14.482;2023-06-14T05:00:19;23.90;1.00
16532;DHT22;66872;63.142;14.482;2023-06-14T05:02:45;23.90;1.00
16532;DHT22;66872;63.142;14.482;2023-06-14T05:05:12;24.00;1.00
16532;DHT22;66872;63.142;14.482;2023-06-14T05:07:38;24.10;1.00
16532;DHT22;66872;63.142;14.482;2023-06-14T05:10:04;24.10;1.00
16532;DHT22;66872;63.142;14.482;2023-06-14T05:12:31;24.20;1.00
16532;DHT22;66872;63.142;14.482;2023-06-14T05:14:57;24.30;1.00
16532;DHT22;66872;63.142;14.482;2023-06-14T05:17:24;24.30;1.00
16532;DHT22;66872;63.142;14.482;2023-06-14T05:19:50;24.40;1.00
16532;DHT22;66872;63.142;14.482;2023-06-14T05:22:16;24.50;1.00
16532;DHT22;66872;63.142;14.482;2023-06-14T05:24:41;24.50;1.00
16532;DHT22;66872;63.142;14.482;2023-06-14T05:27:07;24.60;1.00
16532;DHT22;66872;63.142;14.482;2023-06-14T05:29:33;24.70;1.00
16532;DHT22;66872;63.142;14.482;2023-06-14T05:31:59;24.70;1.00
16532;DHT22;66872;63.142;14.482;2023-06-14T05:34:25;24.80;1.00
16532;DHT22;66872;63.142;14.482;2023-06-14T05:36:51;24.90;1.00
16532;DHT22;66872;63.142;14.482;2023-06-14T05:39:16;24.90;1.00
16532;DHT22;66872;63.142;14.482;2023-06-14T05:41:42;25.00;1.00
16532;DHT22;66872;63.142;14.482;2023-06-14T05:44:08;25.00;1.00
16532;DHT22;66872;63.142;14.482;2023-06-14T05:46:34;25.10;1.00
16532;DHT22;66872;63.142;14.482;2023-06-14T05:48:59;25.20;1.00
16532;DHT22;66872;63.142;14.482;2023-06-14T05:51:25;25.20;1.00
16532;DHT22;66872;63.142;14.482;2023-06-14T05:53:51;25.30;1.00
16532;DHT22;66872;63.142;14.482;2023-06-14T05:56:18;25.40;1.00
16532;DHT22;66872;63.142;14.482;2023-06-14T05:58:44;25.40;1.00
16532;DHT22;66872;63.142;14.482;2023-06-14T06:01:10;25.50;1.00
16532;DHT22;66872;63.142;14.482;2023-06-14T06:03:36;25.50;1.00
16532;DHT22;66872;63.142;14.482;2023-06-14T06:06:02;25.60;1.00
16532;DHT22;66872;63.142;14.482;2023-06-14T06:08:28;25.60;1.00
16532;DHT22;66872;63.142;14.482;2023-06-14T06:10:55;25.70;1.00
16532;DHT22;66872;63.142;14.482;2023-06-14T06:13:21;25.70;1.00
16532;DHT22;66872;63.142;14.482;2023-06-14T06:15:47;25.80;1.00
16532;DHT22;66872;63.142;14.482;2023-06-14T06:18:12;25.90;1.00
16532;DHT22;66872;63.142;14.482;2023-06-14T06:20:38;25.90;1.00
16532;DHT22;66872;63.142;14.482;2023-06-14T06:23:04;26.00;1.00
16532;DHT22;66872;63.142;14.482;2023-06-14T06:25:29;26.00;1.00
16532;DHT22;66872;63.142;14.482;2023-06-14T06:27:57;26.10;1.00
16532;DHT22;66872;63.142;14.482;2023-06-14T06:30:23;26.20;1.00
16532;DHT22;66872;63.142;14.482;2023-06-14T06:32:49;26.20;1.00
16532;DHT22;66872;63.142;14.482;2023-06-14T06:35:16;26.30;1.00
16532;DHT22;66872;63.142;14.482;2023-06-14T06:37:42;26.30;1.00
16532;DHT22;66872;63.142;14.482;2023-06-14T06:40:08;26.40;1.00
16532;DHT22;66872;63.142;14.482;2023-06-14T06:42:34;26.40;1.00
16532;DHT22;66872;63.142;14.482;2023-06-14T06:45:00;26.50;1.00
16532;DHT22;66872;63.142;14.482;2023-06-14T06:47:26;26.60;1.00
16532;DHT22;66872;63.142;14.482;2023-06-14T06:49:52;26.60;1.00
16532;DHT22;66872;63.142;14.482;2023-06-14T06:52:18;26.70;1.00
16532;DHT22;66872;63.142;14.482;2023-06-14T06:54:43;26.70;1.00
16532;DHT22;66872;63.142;14.482;2023-06-14T06:57:09;26.80;1.00
16532;DHT22;66872;63.142;14.482;2023-06-14T06:59:36;26.90;1.00
16532;DHT22;66872;63.142;14.482;2023-06-14T07:02:02;26.90;1.00
16532;DHT22;66872;63.142;14.482;2023-06-14T07:04:27;26.90;1.00
16532;DHT22;66872;63.142;14.482;2023-06-14T07:06:53;26.90;1.00
16532;DHT22;66872;63.142;14.482;2023-06-14T07:09:19;26.90;1.00
16532;DHT22;66872;63.142;14.482;2023-06-14T07:11:47;26.90;1.00
16532;DHT22;66872;63.142;14.482;2023-06-14T07:14:13;27.00;1.00
16532;DHT22;66872;63.142;14.482;2023-06-14T07:16:39;26.90;1.00
16532;DHT22;66872;63.142;14.482;2023-06-14T07:19:04;26.90;1.00
16532;DHT22;66872;63.142;14.482;2023-06-14T07:21:30;26.90;1.00
16532;DHT22;66872;63.142;14.482;2023-06-14T07:23:56;26.90;1.00
16532;DHT22;66872;63.142;14.482;2023-06-14T07:26:22;26.80;1.00
16532;DHT22;66872;63.142;14.482;2023-06-14T07:28:48;26.80;1.00
16532;DHT22;66872;63.142;14.482;2023-06-14T07:31:15;26.80;1.00
16532;DHT22;66872;63.142;14.482;2023-06-14T07:33:42;26.70;1.00
16532;DHT22;66872;63.142;14.482;2023-06-14T07:36:08;26.70;1.00
16532;DHT22;66872;63.142;14.482;2023-06-14T07:38:33;26.70;1.00
16532;DHT22;66872;63.142;14.482;2023-06-14T07:41:00;26.60;1.00
16532;DHT22;66872;63.142;14.482;2023-06-14T07:43:26;26.60;1.00
16532;DHT22;66872;63.142;14.482;2023-06-14T07:45:51;26.50;1.00
16532;DHT22;66872;63.142;14.482;2023-06-14T07:48:18;26.50;1.00
16532;DHT22;66872;63.142;14.482;2023-06-14T07:50:43;26.50;1.00
16532;DHT22;66872;63.142;14.482;2023-06-14T07:53:09;26.50;1.00
16532;DHT22;66872;63.142;14.482;2023-06-14T07:55:35;26.40;1.00
16532;DHT22;66872;63.142;14.482;2023-06-14T07:58:08;26.40;1.00
16532;DHT22;66872;63.142;14.482;2023-06-14T08:00:33;26.40;1.00
16532;DHT22;66872;63.142;14.482;2023-06-14T08:02:59;26.30;1.00
16532;DHT22;66872;63.142;14.482;2023-06-14T08:05:25;26.30;1.00
16532;DHT22;66872;63.142;14.482;2023-06-14T08:07:51;26.30;1.00
16532;DHT22;66872;63.142;14.482;2023-06-14T08:10:18;26.30;1.00
16532;DHT22;66872;63.142;14.482;2023-06-14T08:12:43;26.20;1.00
16532;DHT22;66872;63.142;14.482;2023-06-14T08:15:09;26.20;1.00
16532;DHT22;66872;63.142;14.482;2023-06-14T08:17:35;26.10;1.00
16532;DHT22;66872;63.142;14.482;2023-06-14T08:20:02;26.10;1.00
16532;DHT22;66872;63.142;14.482;2023-06-14T08:22:28;26.10;1.00
16532;DHT22;66872;63.142;14.482;2023-06-14T08:24:58;26.00;1.00
16532;DHT22;66872;63.142;14.482;2023-06-14T08:27:23;26.00;1.00
16532;DHT22;66872;63.142;14.482;2023-06-14T08:29:49;26.00;1.00
16532;DHT22;66872;63.142;14.482;2023-06-14T08:32:15;26.00;1.00
16532;DHT22;66872;63.142;14.482;2023-06-14T08:34:41;26.00;1.00
16532;DHT22;66872;63.142;14.482;2023-06-14T08:37:07;25.90;1.00
16532;DHT22;66872;63.142;14.482;2023-06-14T08:39:33;25.90;1.00
16532;DHT22;66872;63.142;14.482;2023-06-14T08:42:01;25.90;1.00
16532;DHT22;66872;63.142;14.482;2023-06-14T08:44:28;25.90;1.00
16532;DHT22;66872;63.142;14.482;2023-06-14T08:46:56;25.80;1.00
16532;DHT22;66872;63.142;14.482;2023-06-14T08:49:25;25.80;1.00
16532;DHT22;66872;63.142;14.482;2023-06-14T08:51:57;25.80;1.00
16532;DHT22;66872;63.142;14.482;2023-06-14T08:54:23;25.80;1.00
16532;DHT22;66872;63.142;14.482;2023-06-14T08:56:53;25.70;1.00
16532;DHT22;66872;63.142;14.482;2023-06-14T08:59:24;25.70;1.00
16532;DHT22;66872;63.142;14.482;2023-06-14T09:01:51;25.70;1.00
16532;DHT22;66872;63.142;14.482;2023-06-14T09:04:18;25.70;1.00
16532;DHT22;66872;63.142;14.482;2023-06-14T09:06:45;25.70;1.00
16532;DHT22;66872;63.142;14.482;2023-06-14T09:09:11;25.60;1.00
16532;DHT22;66872;63.142;14.482;2023-06-14T09:11:38;25.60;1.00
16532;DHT22;66872;63.142;14.482;2023-06-14T09:14:03;25.60;1.00
16532;DHT22;66872;63.142;14.482;2023-06-14T09:16:32;25.60;1.00
16532;DHT22;66872;63.142;14.482;2023-06-14T09:18:58;25.60;1.00
16532;DHT22;66872;63.142;14.482;2023-06-14T09:21:24;25.50;1.00
16532;DHT22;66872;63.142;14.482;2023-06-14T09:23:50;25.50;1.00
16532;DHT22;66872;63.142;14.482;2023-06-14T09:26:19;25.50;1.00
16532;DHT22;66872;63.142;14.482;2023-06-14T09:28:49;25.50;1.00
16532;DHT22;66872;63.142;14.482;2023-06-14T09:31:20;25.50;1.00
16532;DHT22;66872;63.142;14.482;2023-06-14T09:33:48;25.40;1.00
16532;DHT22;66872;63.142;14.482;2023-06-14T09:36:24;25.40;1.00
16532;DHT22;66872;63.142;14.482;2023-06-14T09:38:55;25.40;1.00
16532;DHT22;66872;63.142;14.482;2023-06-14T09:41:33;25.30;1.00
16532;DHT22;66872;63.142;14.482;2023-06-14T09:44:00;25.30;1.00
16532;DHT22;66872;63.142;14.482;2023-06-14T09:46:27;25.30;1.00
16532;DHT22;66872;63.142;14.482;2023-06-14T09:48:55;25.20;1.00
16532;DHT22;66872;63.142;14.482;2023-06-14T09:51:22;25.10;1.00
16532;DHT22;66872;63.142;14.482;2023-06-14T09:53:49;25.10;1.00
16532;DHT22;66872;63.142;14.482;2023-06-14T09:56:28;25.10;1.00
16532;DHT22;66872;63.142;14.482;2023-06-14T09:58:57;25.10;1.00
16532;DHT22;66872;63.142;14.482;2023-06-14T10:01:29;25.00;1.00
16532;DHT22;66872;63.142;14.482;2023-06-14T10:04:05;25.00;1.00
16532;DHT22;66872;63.142;14.482;2023-06-14T10:06:32;24.90;1.00
16532;DHT22;66872;63.142;14.482;2023-06-14T10:09:04;24.90;1.00
16532;DHT22;66872;63.142;14.482;2023-06-14T10:11:31;24.90;1.00
16532;DHT22;66872;63.142;14.482;2023-06-14T10:13:58;24.90;1.00
16532;DHT22;66872;63.142;14.482;2023-06-14T10:16:34;24.80;1.00
16532;DHT22;66872;63.142;14.482;2023-06-14T10:19:22;24.70;1.00
16532;DHT22;66872;63.142;14.482;2023-06-14T10:24:43;24.60;1.00
16532;DHT22;66872;63.142;14.482;2023-06-14T10:27:09;24.50;1.00
16532;DHT22;66872;63.142;14.482;2023-06-14T10:30:02;24.40;1.00
16532;DHT22;66872;63.142;14.482;2023-06-14T10:32:28;24.40;1.00
16532;DHT22;66872;63.142;14.482;2023-06-14T10:34:57;24.30;1.00
16532;DHT22;66872;63.142;14.482;2023-06-14T10:37:23;24.30;1.00
16532;DHT22;66872;63.142;14.482;2023-06-14T10:39:50;24.20;1.00
16532;DHT22;66872;63.142;14.482;2023-06-14T10:42:16;24.20;1.00
16532;DHT22;66872;63.142;14.482;2023-06-14T10:44:49;24.10;1.00
16532;DHT22;66872;63.142;14.482;2023-06-14T10:47:24;24.10;1.00
16532;DHT22;66872;63.142;14.482;2023-06-14T10:49:56;24.00;1.00
16532;DHT22;66872;63.142;14.482;2023-06-14T10:52:25;24.00;1.00
16532;DHT22;66872;63.142;14.482;2023-06-14T10:55:12;24.00;1.00
16532;DHT22;66872;63.142;14.482;2023-06-14T10:57:47;23.90;1.00
16532;DHT22;66872;63.142;14.482;2023-06-14T11:00:20;23.90;1.00
16532;DHT22;66872;63.142;14.482;2023-06-14T11:05:54;23.80;1.00
16532;DHT22;66872;63.142;14.482;2023-06-14T11:11:11;23.80;1.00
16532;DHT22;66872;63.142;14.482;2023-06-14T11:13:43;23.70;1.00
16532;DHT22;66872;63.142;14.482;2023-06-14T11:16:13;23.70;27.00
16532;DHT22;66872;63.142;14.482;2023-06-14T11:18:40;23.60;28.20
16532;DHT22;66872;63.142;14.482;2023-06-14T11:21:06;23.60;28.30
16532;DHT22;66872;63.142;14.482;2023-06-14T11:23:32;23.60;28.30
16532;DHT22;66872;63.142;14.482;2023-06-14T11:25:57;23.60;28.40
16532;DHT22;66872;63.142;14.482;2023-06-14T11:28:23;23.60;28.40
16532;DHT22;66872;63.142;14.482;2023-06-14T11:31:02;23.60;28.40
16532;DHT22;66872;63.142;14.482;2023-06-14T11:33:29;23.60;28.40
16532;DHT22;66872;63.142;14.482;2023-06-14T11:35:54;23.60;28.50
16532;DHT22;66872;63.142;14.482;2023-06-14T11:38:20;23.60;28.50
16532;DHT22;66872;63.142;14.482;2023-06-14T11:40:46;23.50;28.50
16532;DHT22;66872;63.142;14.482;2023-06-14T11:43:11;23.50;28.60
16532;DHT22;66872;63.142;14.482;2023-06-14T11:45:38;23.50;28.60
16532;DHT22;66872;63.142;14.482;2023-06-14T11:48:04;23.50;28.60
16532;DHT22;66872;63.142;14.482;2023-06-14T11:50:31;23.50;28.60
16532;DHT22;66872;63.142;14.482;2023-06-14T11:53:01;23.50;28.70
16532;DHT22;66872;63.142;14.482;2023-06-14T11:55:42;23.50;28.70
16532;DHT22;66872;63.142;14.482;2023-06-14T11:58:10;23.50;28.60
16532;DHT22;66872;63.142;14.482;2023-06-14T12:00:36;23.50;28.70
16532;DHT22;66872;63.142;14.482;2023-06-14T12:03:02;23.50;28.70
16532;DHT22;66872;63.142;14.482;2023-06-14T12:05:28;23.50;28.70
16532;DHT22;66872;63.142;14.482;2023-06-14T12:08:02;23.40;28.70
16532;DHT22;66872;63.142;14.482;2023-06-14T12:10:29;23.40;28.70
16532;DHT22;66872;63.142;14.482;2023-06-14T12:12:58;23.40;28.70
16532;DHT22;66872;63.142;14.482;2023-06-14T12:15:24;23.40;28.70
16532;DHT22;66872;63.142;14.482;2023-06-14T12:17:54;23.40;28.70
16532;DHT22;66872;63.142;14.482;2023-06-14T12:20:20;23.40;28.70
16532;DHT22;66872;63.142;14.482;2023-06-14T12:22:54;23.40;28.80
16532;DHT22;66872;63.142;14.482;2023-06-14T12:25:32;23.40;29.30
16532;DHT22;66872;63.142;14.482;2023-06-14T12:27:59;23.40;28.80
16532;DHT22;66872;63.142;14.482;2023-06-14T12:30:25;23.40;28.80
16532;DHT22;66872;63.142;14.482;2023-06-14T12:32:51;23.30;28.70
16532;DHT22;66872;63.142;14.482;2023-06-14T12:35:19;23.30;28.80
16532;DHT22;66872;63.142;14.482;2023-06-14T12:37:45;23.30;28.80
16532;DHT22;66872;63.142;14.482;2023-06-14T12:40:12;23.30;28.80
16532;DHT22;66872;63.142;14.482;2023-06-14T12:42:38;23.30;28.80
16532;DHT22;66872;63.142;14.482;2023-06-14T12:45:04;23.30;28.80
16532;DHT22;66872;63.142;14.482;2023-06-14T12:47:30;23.30;28.90
16532;DHT22;66872;63.142;14.482;2023-06-14T12:49:56;23.30;28.90
16532;DHT22;66872;63.142;14.482;2023-06-14T12:52:21;23.30;28.90
16532;DHT22;66872;63.142;14.482;2023-06-14T12:54:47;23.30;28.90
16532;DHT22;66872;63.142;14.482;2023-06-14T12:57:13;23.30;28.90
16532;DHT22;66872;63.142;14.482;2023-06-14T12:59:38;23.30;28.90
16532;DHT22;66872;63.142;14.482;2023-06-14T13:02:15;23.20;28.80
16532;DHT22;66872;63.142;14.482;2023-06-14T13:04:40;23.20;28.80
16532;DHT22;66872;63.142;14.482;2023-06-14T13:07:06;23.20;28.80
16532;DHT22;66872;63.142;14.482;2023-06-14T13:09:32;23.20;28.80
16532;DHT22;66872;63.142;14.482;2023-06-14T13:11:57;23.20;28.80
16532;DHT22;66872;63.142;14.482;2023-06-14T13:14:23;23.20;28.80
16532;DHT22;66872;63.142;14.482;2023-06-14T13:16:49;23.20;28.80
16532;DHT22;66872;63.142;14.482;2023-06-14T13:19:14;23.20;28.80
16532;DHT22;66872;63.142;14.482;2023-06-14T13:21:40;23.20;28.80
16532;DHT22;66872;63.142;14.482;2023-06-14T13:24:06;23.20;28.80
16532;DHT22;66872;63.142;14.482;2023-06-14T13:26:33;23.20;28.80
16532;DHT22;66872;63.142;14.482;2023-06-14T13:28:59;23.20;28.80
16532;DHT22;66872;63.142;14.482;2023-06-14T13:31:25;23.20;28.80
16532;DHT22;66872;63.142;14.482;2023-06-14T13:33:51;23.20;28.80
16532;DHT22;66872;63.142;14.482;2023-06-14T13:36:16;23.20;28.80
16532;DHT22;66872;63.142;14.482;2023-06-14T13:38:42;23.20;28.80
16532;DHT22;66872;63.142;14.482;2023-06-14T13:41:08;23.20;28.80
16532;DHT22;66872;63.142;14.482;2023-06-14T13:43:33;23.10;28.70
16532;DHT22;66872;63.142;14.482;2023-06-14T13:45:59;23.10;28.70
16532;DHT22;66872;63.142;14.482;2023-06-14T13:48:26;23.10;28.70
16532;DHT22;66872;63.142;14.482;2023-06-14T13:50:52;23.10;28.70
16532;DHT22;66872;63.142;14.482;2023-06-14T13:53:18;23.10;28.70
16532;DHT22;66872;63.142;14.482;2023-06-14T13:55:43;23.10;28.70
16532;DHT22;66872;63.142;14.482;2023-06-14T13:58:09;23.10;28.70
16532;DHT22;66872;63.142;14.482;2023-06-14T14:00:34;23.10;28.70
16532;DHT22;66872;63.142;14.482;2023-06-14T14:03:05;23.10;28.70
16532;DHT22;66872;63.142;14.482;2023-06-14T14:05:31;23.10;28.70
16532;DHT22;66872;63.142;14.482;2023-06-14T14:07:57;23.10;28.70
16532;DHT22;66872;63.142;14.482;2023-06-14T14:10:24;23.10;28.70
16532;DHT22;66872;63.142;14.482;2023-06-14T14:12:51;23.10;28.70
16532;DHT22;66872;63.142;14.482;2023-06-14T14:15:17;23.10;28.70
16532;DHT22;66872;63.142;14.482;2023-06-14T14:17:43;23.10;28.60
16532;DHT22;66872;63.142;14.482;2023-06-14T14:20:09;23.10;28.60
16532;DHT22;66872;63.142;14.482;2023-06-14T14:22:37;23.10;28.60
16532;DHT22;66872;63.142;14.482;2023-06-14T14:25:02;23.10;28.60
16532;DHT22;66872;63.142;14.482;2023-06-14T14:27:28;23.10;28.60
16532;DHT22;66872;63.142;14.482;2023-06-14T14:29:54;23.10;28.60
16532;DHT22;66872;63.142;14.482;2023-06-14T14:32:19;23.10;28.60
16532;DHT22;66872;63.142;14.482;2023-06-14T14:34:45;23.10;28.60
16532;DHT22;66872;63.142;14.482;2023-06-14T14:37:11;23.10;28.70
16532;DHT22;66872;63.142;14.482;2023-06-14T14:39:38;23.10;28.70
16532;DHT22;66872;63.142;14.482;2023-06-14T14:42:04;23.00;28.60
16532;DHT22;66872;63.142;14.482;2023-06-14T14:44:30;23.00;28.60
16532;DHT22;66872;63.142;14.482;2023-06-14T14:46:56;23.00;28.60
16532;DHT22;66872;63.142;14.482;2023-06-14T14:49:22;23.00;28.60
16532;DHT22;66872;63.142;14.482;2023-06-14T14:51:47;23.00;28.60
16532;DHT22;66872;63.142;14.482;2023-06-14T14:54:13;23.00;28.60
16532;DHT22;66872;63.142;14.482;2023-06-14T14:56:39;23.00;28.60
16532;DHT22;66872;63.142;14.482;2023-06-14T14:59:04;23.00;28.60
16532;DHT22;66872;63.142;14.482;2023-06-14T15:01:30;23.00;28.50
16532;DHT22;66872;63.142;14.482;2023-06-14T15:03:56;23.00;28.50
16532;DHT22;66872;63.142;14.482;2023-06-14T15:06:22;23.00;28.50
16532;DHT22;66872;63.142;14.482;2023-06-14T15:08:47;23.00;28.50
16532;DHT22;66872;63.142;14.482;2023-06-14T15:11:13;23.00;28.50
16532;DHT22;66872;63.142;14.482;2023-06-14T15:13:38;23.00;28.50
16532;DHT22;66872;63.142;14.482;2023-06-14T15:16:04;23.00;28.50
16532;DHT22;66872;63.142;14.482;2023-06-14T15:18:30;23.00;28.50
16532;DHT22;66872;63.142;14.482;2023-06-14T15:20:56;23.00;28.40
16532;DHT22;66872;63.142;14.482;2023-06-14T15:23:21;23.00;28.40
16532;DHT22;66872;63.142;14.482;2023-06-14T15:25:47;23.00;28.40
16532;DHT22;66872;63.142;14.482;2023-06-14T15:28:13;23.00;28.40
16532;DHT22;66872;63.142;14.482;2023-06-14T15:30:39;23.00;28.40
16532;DHT22;66872;63.142;14.482;2023-06-14T15:33:05;23.00;28.40
16532;DHT22;66872;63.142;14.482;2023-06-14T15:35:30;23.00;28.40
16532;DHT22;66872;63.142;14.482;2023-06-14T15:37:56;23.00;28.40